sensor_id;sensor_type;location;lat;lon;timestamp;pressure;altitude;pressure_sealevel;temperature;humidity
38227;BME280;24026;49.446;8.576;2023-05-10T00:01:49;99879.94;;;18.58;69.28
38227;BME280;24026;49.446;8.576;2023-05-10T00:04:09;99883.53;;;18.54;69.27
38227;BME280;24026;49.446;8.576;2023-05-10T00:06:30;99887.03;;;18.54;69.27
38227;BME280;24026;49.446;8.576;2023-05-10T00:08:50;99887.22;;;18.58;69.27
38227;BME280;24026;49.446;8.576;2023-05-10T00:11:10;99882.16;;;18.56;69.37
38227;BME280;24026;49.446;8.576;2023-05-10T00:13:31;99887.84;;;18.55;69.00
38227;BME280;24026;49.446;8.576;2023-05-10T00:15:51;99884.63;;;18.52;69.04
38227;BME280;24026;49.446;8.576;2023-05-10T00:18:12;99888.44;;;18.51;69.02
38227;BME280;24026;49.446;8.576;2023-05-10T00:20:32;99892.81;;;18.47;69.44
38227;BME280;24026;49.446;8.576;2023-05-10T00:22:52;99894.13;;;18.50;69.33
38227;BME280;24026;49.446;8.576;2023-05-10T00:25:13;99885.44;;;18.53;68.98
38227;BME280;24026;49.446;8.576;2023-05-10T00:27:33;99892.69;;;18.52;69.02
38227;BME280;24026;49.446;8.576;2023-05-10T00:29:54;99886.66;;;18.47;68.96
38227;BME280;24026;49.446;8.576;2023-05-10T00:32:14;99892.34;;;18.45;69.21
38227;BME280;24026;49.446;8.576;2023-05-10T00:34:34;99886.66;;;18.47;69.17
38227;BME280;24026;49.446;8.576;2023-05-10T00:36:55;99880.19;;;18.48;69.09
38227;BME280;24026;49.446;8.576;2023-05-10T00:39:16;99882.88;;;18.48;68.97
38227;BME280;24026;49.446;8.576;2023-05-10T00:41:36;99886.66;;;18.47;68.61
38227;BME280;24026;49.446;8.576;2023-05-10T00:43:57;99883.66;;;18.48;69.01
38227;BME280;24026;49.446;8.576;2023-05-10T00:46:17;99886.06;;;18.50;68.71
38227;BME280;24026;49.446;8.576;2023-05-10T00:48:38;99893.25;;;18.41;68.74
38227;BME280;24026;49.446;8.576;2023-05-10T00:50:58;99897.06;;;18.40;69.08
38227;BME280;24026;49.446;8.576;2023-05-10T00:53:19;99897.56;;;18.42;68.60
38227;BME280;24026;49.446;8.576;2023-05-10T00:55:39;99894.06;;;18.41;68.54
38227;BME280;24026;49.446;8.576;2023-05-10T00:58:00;99900.72;;;18.44;68.69
38227;BME280;24026;49.446;8.576;2023-05-10T01:00:21;99897.06;;;18.40;68.52
38227;BME280;24026;49.446;8.576;2023-05-10T01:02:42;99897.25;;;18.43;68.37
38227;BME280;24026;49.446;8.576;2023-05-10T01:05:03;99899.63;;;18.45;68.22
38227;BME280;24026;49.446;8.576;2023-05-10T01:07:23;99889.78;;;18.40;68.72
38227;BME280;24026;49.446;8.576;2023-05-10T01:09:44;99885.63;;;18.34;68.59
38227;BME280;24026;49.446;8.576;2023-05-10T01:12:04;99891.50;;;18.36;68.58
38227;BME280;24026;49.446;8.576;2023-05-10T01:14:27;99899.75;;;18.40;68.23
38227;BME280;24026;49.446;8.576;2023-05-10T01:16:48;99896.59;;;18.38;68.60
38227;BME280;24026;49.446;8.576;2023-05-10T01:19:29;99897.78;;;18.31;68.18
38227;BME280;24026;49.446;8.576;2023-05-10T01:30:15;99898.53;;;18.23;68.23
38227;BME280;24026;49.446;8.576;2023-05-10T01:35:20;99902.69;;;18.29;68.34
38227;BME280;24026;49.446;8.576;2023-05-10T01:38:16;99896.00;;;18.27;68.24
38227;BME280;24026;49.446;8.576;2023-05-10T01:40:53;99904.50;;;18.20;68.40
38227;BME280;24026;49.446;8.576;2023-05-10T01:43:22;99905.97;;;18.26;68.35
38227;BME280;24026;49.446;8.576;2023-05-10T01:45:50;99907.06;;;18.25;68.24
38227;BME280;24026;49.446;8.576;2023-05-10T01:48:17;99908.97;;;18.25;68.18
38227;BME280;24026;49.446;8.576;2023-05-10T01:50:42;99913.56;;;18.24;68.37
38227;BME280;24026;49.446;8.576;2023-05-10T01:53:06;99911.38;;;18.26;68.02
38227;BME280;24026;49.446;8.576;2023-05-10T01:55:30;99909.28;;;18.23;68.17
38227;BME280;24026;49.446;8.576;2023-05-10T01:57:58;99914.66;;;18.23;68.23
38227;BME280;24026;49.446;8.576;2023-05-10T02:00:20;99921.63;;;18.24;68.20
38227;BME280;24026;49.446;8.576;2023-05-10T02:02:45;99920.34;;;18.22;67.89
38227;BME280;24026;49.446;8.576;2023-05-10T02:05:06;99919.84;;;18.20;68.01
38227;BME280;24026;49.446;8.576;2023-05-10T02:07:28;99921.94;;;18.23;67.85
38227;BME280;24026;49.446;8.576;2023-05-10T02:09:49;99917.66;;;18.22;68.18
38227;BME280;24026;49.446;8.576;2023-05-10T02:12:13;99924.13;;;18.21;68.17
38227;BME280;24026;49.446;8.576;2023-05-10T02:14:35;99920.63;;;18.20;68.13
38227;BME280;24026;49.446;8.576;2023-05-10T02:16:56;99924.41;;;18.19;68.09
38227;BME280;24026;49.446;8.576;2023-05-10T02:19:18;99922.84;;;18.18;68.09
38227;BME280;24026;49.446;8.576;2023-05-10T02:21:41;99919.56;;;18.21;67.98
38227;BME280;24026;49.446;8.576;2023-05-10T02:24:02;99923.13;;;18.17;68.05
38227;BME280;24026;49.446;8.576;2023-05-10T02:26:24;99929.41;;;18.12;68.21
38227;BME280;24026;49.446;8.576;2023-05-10T02:28:45;99926.13;;;18.15;67.83
38227;BME280;24026;49.446;8.576;2023-05-10T02:31:06;99932.13;;;18.12;68.24
38227;BME280;24026;49.446;8.576;2023-05-10T02:33:28;99925.66;;;18.13;68.06
38227;BME280;24026;49.446;8.576;2023-05-10T02:35:50;99929.72;;;18.10;68.14
38227;BME280;24026;49.446;8.576;2023-05-10T02:38:11;99929.13;;;18.13;68.25
38227;BME280;24026;49.446;8.576;2023-05-10T02:40:33;99941.59;;;18.09;67.89
38227;BME280;24026;49.446;8.576;2023-05-10T02:42:56;99944.16;;;18.14;68.00
38227;BME280;24026;49.446;8.576;2023-05-10T02:45:23;99932.13;;;18.12;67.92
38227;BME280;24026;49.446;8.576;2023-05-10T02:47:44;99941.28;;;18.11;67.92
38227;BME280;24026;49.446;8.576;2023-05-10T02:50:05;99939.50;;;18.06;68.16
38227;BME280;24026;49.446;8.576;2023-05-10T02:52:29;99943.47;;;18.09;68.12
38227;BME280;24026;49.446;8.576;2023-05-10T02:54:55;99945.19;;;18.05;68.08
38227;BME280;24026;49.446;8.576;2023-05-10T02:57:17;99940.59;;;18.05;68.11
38227;BME280;24026;49.446;8.576;2023-05-10T02:59:40;99943.38;;;18.00;68.04
38227;BME280;24026;49.446;8.576;2023-05-10T03:02:02;99940.09;;;18.03;67.92
38227;BME280;24026;49.446;8.576;2023-05-10T03:04:23;99948.47;;;18.02;68.18
38227;BME280;24026;49.446;8.576;2023-05-10T03:06:44;99934.53;;;18.00;67.85
38227;BME280;24026;49.446;8.576;2023-05-10T03:09:05;99935.31;;;18.00;67.98
38227;BME280;24026;49.446;8.576;2023-05-10T03:16:42;99946.09;;;18.00;68.05
38227;BME280;24026;49.446;8.576;2023-05-10T03:19:27;99942.41;;;17.96;67.74
38227;BME280;24026;49.446;8.576;2023-05-10T03:21:51;99944.47;;;17.99;67.70
38227;BME280;24026;49.446;8.576;2023-05-10T03:24:13;99943.69;;;17.99;67.70
38227;BME280;24026;49.446;8.576;2023-05-10T03:26:36;99946.50;;;17.93;68.05
38227;BME280;24026;49.446;8.576;2023-05-10T03:28:57;99956.16;;;17.94;67.90
38227;BME280;24026;49.446;8.576;2023-05-10T03:31:19;99952.88;;;17.98;67.57
38227;BME280;24026;49.446;8.576;2023-05-10T03:33:49;99949.66;;;17.95;67.45
38227;BME280;24026;49.446;8.576;2023-05-10T03:36:10;99946.69;;;17.97;67.50
38227;BME280;24026;49.446;8.576;2023-05-10T03:38:31;99951.28;;;17.96;67.57
38227;BME280;24026;49.446;8.576;2023-05-10T03:40:51;99953.97;;;17.96;67.51
38227;BME280;24026;49.446;8.576;2023-05-10T03:43:11;99956.16;;;17.94;67.48
38227;BME280;24026;49.446;8.576;2023-05-10T03:45:32;99957.72;;;17.95;67.94
38227;BME280;24026;49.446;8.576;2023-05-10T03:47:52;99963.09;;;17.95;67.50
38227;BME280;24026;49.446;8.576;2023-05-10T03:50:12;99956.94;;;17.95;67.76
38227;BME280;24026;49.446;8.576;2023-05-10T03:52:33;99955.63;;;17.92;67.70
38227;BME280;24026;49.446;8.576;2023-05-10T03:54:53;99961.03;;;17.92;67.70
38227;BME280;24026;49.446;8.576;2023-05-10T03:57:13;99965.78;;;17.95;67.73
38227;BME280;24026;49.446;8.576;2023-05-10T03:59:34;99962.91;;;17.92;67.58
38227;BME280;24026;49.446;8.576;2023-05-10T04:01:54;99951.97;;;17.88;67.86
38227;BME280;24026;49.446;8.576;2023-05-10T04:04:14;99959.16;;;17.93;67.41
38227;BME280;24026;49.446;8.576;2023-05-10T04:06:35;99960.41;;;17.95;67.28
38227;BME280;24026;49.446;8.576;2023-05-10T04:08:56;99968.59;;;17.90;67.62
38227;BME280;24026;49.446;8.576;2023-05-10T04:11:16;99974.25;;;17.89;67.55
38227;BME280;24026;49.446;8.576;2023-05-10T04:13:37;99979.66;;;17.89;67.35
38227;BME280;24026;49.446;8.576;2023-05-10T04:15:58;99980.75;;;17.88;67.41
38227;BME280;24026;49.446;8.576;2023-05-10T04:18:18;99981.03;;;17.86;67.69
38227;BME280;24026;49.446;8.576;2023-05-10T04:20:38;99991.78;;;17.86;67.68
38227;BME280;24026;49.446;8.576;2023-05-10T04:22:59;99984.31;;;17.83;67.50
38227;BME280;24026;49.446;8.576;2023-05-10T04:25:19;99988.59;;;17.84;67.52
38227;BME280;24026;49.446;8.576;2023-05-10T04:27:39;99988.81;;;17.88;67.31
38227;BME280;24026;49.446;8.576;2023-05-10T04:30:00;99989.38;;;17.85;67.55
38227;BME280;24026;49.446;8.576;2023-05-10T04:32:21;99978.94;;;17.83;67.41
38227;BME280;24026;49.446;8.576;2023-05-10T04:34:41;99982.69;;;17.82;67.63
38227;BME280;24026;49.446;8.576;2023-05-10T04:37:01;99990.28;;;17.80;67.41
38227;BME280;24026;49.446;8.576;2023-05-10T04:39:22;99988.38;;;17.81;67.32
38227;BME280;24026;49.446;8.576;2023-05-10T04:41:42;100000.53;;;17.78;67.39
38227;BME280;24026;49.446;8.576;2023-05-10T04:44:03;99993.47;;;17.82;67.46
38227;BME280;24026;49.446;8.576;2023-05-10T04:46:23;99988.59;;;17.84;67.23
38227;BME280;24026;49.446;8.576;2023-05-10T04:48:44;99993.97;;;17.84;67.42
38227;BME280;24026;49.446;8.576;2023-05-10T04:51:04;99997.06;;;17.77;67.36
38227;BME280;24026;49.446;8.576;2023-05-10T04:53:27;99997.34;;;17.76;67.34
38227;BME280;24026;49.446;8.576;2023-05-10T04:55:48;99996.75;;;17.79;67.11
38227;BME280;24026;49.446;8.576;2023-05-10T04:58:09;99998.94;;;17.77;67.15
38227;BME280;24026;49.446;8.576;2023-05-10T05:00:30;100006.22;;;17.76;67.15
38227;BME280;24026;49.446;8.576;2023-05-10T05:02:50;100010.50;;;17.77;67.45
38227;BME280;24026;49.446;8.576;2023-05-10T05:05:12;100007.28;;;17.75;67.20
38227;BME280;24026;49.446;8.576;2023-05-10T05:07:33;100004.31;;;17.77;67.20
38227;BME280;24026;49.446;8.576;2023-05-10T05:09:54;100006.69;;;17.78;67.30
38227;BME280;24026;49.446;8.576;2023-05-10T05:12:15;100000.84;;;17.76;67.07
38227;BME280;24026;49.446;8.576;2023-05-10T05:14:35;100008.91;;;17.76;67.22
38227;BME280;24026;49.446;8.576;2023-05-10T05:16:56;100012.97;;;17.74;67.18
38227;BME280;24026;49.446;8.576;2023-05-10T05:19:18;100022.34;;;17.76;66.92
38227;BME280;24026;49.446;8.576;2023-05-10T05:21:38;100015.06;;;17.77;67.04
38227;BME280;24026;49.446;8.576;2023-05-10T05:24:16;100019.94;;;17.75;66.95
38227;BME280;24026;49.446;8.576;2023-05-10T05:26:40;100014.06;;;17.73;67.06
38227;BME280;24026;49.446;8.576;2023-05-10T05:29:02;100016.75;;;17.73;67.18
38227;BME280;24026;49.446;8.576;2023-05-10T05:31:23;100023.94;;;17.77;66.87
38227;BME280;24026;49.446;8.576;2023-05-10T05:33:44;100020.72;;;17.75;67.06
38227;BME280;24026;49.446;8.576;2023-05-10T05:36:06;100025.31;;;17.75;67.22
38227;BME280;24026;49.446;8.576;2023-05-10T05:38:26;100027.03;;;17.71;67.22
38227;BME280;24026;49.446;8.576;2023-05-10T05:40:49;100028.50;;;17.77;67.00
38227;BME280;24026;49.446;8.576;2023-05-10T05:43:14;100022.63;;;17.75;67.03
38227;BME280;24026;49.446;8.576;2023-05-10T05:45:36;100027.41;;;17.78;67.29
38227;BME280;24026;49.446;8.576;2023-05-10T05:47:58;100035.69;;;17.82;66.80
38227;BME280;24026;49.446;8.576;2023-05-10T05:50:19;100034.38;;;17.79;67.20
38227;BME280;24026;49.446;8.576;2023-05-10T05:52:42;100035.97;;;17.80;67.03
38227;BME280;24026;49.446;8.576;2023-05-10T05:55:04;100037.56;;;17.81;66.92
38227;BME280;24026;49.446;8.576;2023-05-10T05:57:25;100036.97;;;17.84;66.63
38227;BME280;24026;49.446;8.576;2023-05-10T05:59:46;100033.19;;;17.85;66.79
38227;BME280;24026;49.446;8.576;2023-05-10T06:02:08;100048.22;;;17.86;66.33
38227;BME280;24026;49.446;8.576;2023-05-10T06:04:28;100055.22;;;17.87;66.59
38227;BME280;24026;49.446;8.576;2023-05-10T06:06:49;100056.28;;;17.86;66.13
38227;BME280;24026;49.446;8.576;2023-05-10T06:09:10;100057.97;;;17.82;66.47
38227;BME280;24026;49.446;8.576;2023-05-10T06:11:30;100062.84;;;17.80;66.82
38227;BME280;24026;49.446;8.576;2023-05-10T06:13:52;100068.22;;;17.80;66.60
38227;BME280;24026;49.446;8.576;2023-05-10T06:16:12;100067.28;;;17.90;66.38
38227;BME280;24026;49.446;8.576;2023-05-10T06:18:33;100069.38;;;17.93;66.37
38227;BME280;24026;49.446;8.576;2023-05-10T06:20:56;100067.13;;;17.81;66.81
38227;BME280;24026;49.446;8.576;2023-05-10T06:23:16;100074.09;;;17.82;66.33
38227;BME280;24026;49.446;8.576;2023-05-10T06:25:36;100077.53;;;17.88;65.93
38227;BME280;24026;49.446;8.576;2023-05-10T06:27:57;100074.63;;;17.84;66.45
38227;BME280;24026;49.446;8.576;2023-05-10T06:30:18;100077.59;;;17.83;66.22
38227;BME280;24026;49.446;8.576;2023-05-10T06:32:38;100084.84;;;17.82;66.55
38227;BME280;24026;49.446;8.576;2023-05-10T06:34:58;100085.13;;;17.81;66.56
38227;BME280;24026;49.446;8.576;2023-05-10T06:37:19;100081.84;;;17.84;66.44
38227;BME280;24026;49.446;8.576;2023-05-10T06:39:39;100079.09;;;17.89;66.24
38227;BME280;24026;49.446;8.576;2023-05-10T06:42:02;100076.94;;;17.91;66.03
38227;BME280;24026;49.446;8.576;2023-05-10T06:44:26;100072.72;;;17.85;66.11
38227;BME280;24026;49.446;8.576;2023-05-10T06:46:48;100078.09;;;17.85;66.09
38227;BME280;24026;49.446;8.576;2023-05-10T06:49:08;100077.91;;;17.81;66.47
38227;BME280;24026;49.446;8.576;2023-05-10T06:51:29;100081.97;;;17.78;66.61
38227;BME280;24026;49.446;8.576;2023-05-10T06:53:51;100081.66;;;17.80;66.59
38227;BME280;24026;49.446;8.576;2023-05-10T06:56:13;100088.13;;;17.79;66.46
38227;BME280;24026;49.446;8.576;2023-05-10T06:58:34;100081.97;;;17.78;66.82
38227;BME280;24026;49.446;8.576;2023-05-10T07:01:02;100087.72;;;17.86;66.24
38227;BME280;24026;49.446;8.576;2023-05-10T07:03:22;100092.06;;;17.87;66.08
38227;BME280;24026;49.446;8.576;2023-05-10T07:05:44;100093.56;;;17.93;65.91
38227;BME280;24026;49.446;8.576;2023-05-10T07:08:06;100090.16;;;17.87;66.01
38227;BME280;24026;49.446;8.576;2023-05-10T07:10:26;100083.47;;;17.85;66.37
38227;BME280;24026;49.446;8.576;2023-05-10T07:12:47;100092.84;;;17.87;66.01
38227;BME280;24026;49.446;8.576;2023-05-10T07:15:09;100088.47;;;17.91;66.03
38227;BME280;24026;49.446;8.576;2023-05-10T07:17:32;100096.75;;;17.95;65.95
38227;BME280;24026;49.446;8.576;2023-05-10T07:19:54;100097.22;;;17.97;65.92
38227;BME280;24026;49.446;8.576;2023-05-10T07:22:16;100085.19;;;17.94;65.73
38227;BME280;24026;49.446;8.576;2023-05-10T07:24:37;100082.22;;;17.96;66.02
38227;BME280;24026;49.446;8.576;2023-05-10T07:26:59;100086.97;;;17.99;65.71
38227;BME280;24026;49.446;8.576;2023-05-10T07:29:22;100086.09;;;18.04;65.54
38227;BME280;24026;49.446;8.576;2023-05-10T07:31:42;100088.28;;;18.02;66.04
38227;BME280;24026;49.446;8.576;2023-05-10T07:34:03;100090.09;;;18.06;65.95
38227;BME280;24026;49.446;8.576;2023-05-10T07:36:23;100094.75;;;18.01;65.66
38227;BME280;24026;49.446;8.576;2023-05-10T07:38:44;100097.66;;;18.04;65.89
38227;BME280;24026;49.446;8.576;2023-05-10T07:41:05;100097.34;;;18.06;65.71
38227;BME280;24026;49.446;8.576;2023-05-10T07:43:26;100102.41;;;18.07;65.58
38227;BME280;24026;49.446;8.576;2023-05-10T07:45:46;100099.63;;;18.12;65.47
38227;BME280;24026;49.446;8.576;2023-05-10T07:48:07;100099.03;;;18.15;65.21
38227;BME280;24026;49.446;8.576;2023-05-10T07:50:28;100101.91;;;18.19;65.11
38227;BME280;24026;49.446;8.576;2023-05-10T07:52:49;100104.13;;;18.17;65.48
38227;BME280;24026;49.446;8.576;2023-05-10T07:55:12;100101.63;;;18.21;65.08
38227;BME280;24026;49.446;8.576;2023-05-10T07:57:34;100103.72;;;18.24;65.43
38227;BME280;24026;49.446;8.576;2023-05-10T07:59:56;100111.50;;;18.25;65.49
38227;BME280;24026;49.446;8.576;2023-05-10T08:02:16;100105.81;;;18.27;65.14
38227;BME280;24026;49.446;8.576;2023-05-10T08:04:37;100116.06;;;18.25;65.29
38227;BME280;24026;49.446;8.576;2023-05-10T08:06:59;100110.78;;;18.33;64.68
38227;BME280;24026;49.446;8.576;2023-05-10T08:09:22;100107.22;;;18.38;64.87
38227;BME280;24026;49.446;8.576;2023-05-10T08:11:44;100107.31;;;18.33;64.76
38227;BME280;24026;49.446;8.576;2023-05-10T08:14:04;100116.06;;;18.39;64.72
38227;BME280;24026;49.446;8.576;2023-05-10T08:16:25;100109.31;;;18.41;64.66
38227;BME280;24026;49.446;8.576;2023-05-10T08:18:46;100113.56;;;18.42;64.77
38227;BME280;24026;49.446;8.576;2023-05-10T08:21:14;100102.81;;;18.42;64.36
38227;BME280;24026;49.446;8.576;2023-05-10T08:23:37;100109.09;;;18.38;64.39
38227;BME280;24026;49.446;8.576;2023-05-10T08:25:57;100108.09;;;18.33;64.76
38227;BME280;24026;49.446;8.576;2023-05-10T08:28:18;100106.72;;;18.36;64.34
38227;BME280;24026;49.446;8.576;2023-05-10T08:30:38;100112.09;;;18.36;64.48
38227;BME280;24026;49.446;8.576;2023-05-10T08:32:58;100120.66;;;18.38;64.28
38227;BME280;24026;49.446;8.576;2023-05-10T08:35:19;100114.69;;;18.41;64.42
38227;BME280;24026;49.446;8.576;2023-05-10T08:37:40;100117.38;;;18.41;64.00
38227;BME280;24026;49.446;8.576;2023-05-10T08:40:00;100117.38;;;18.41;63.92
38227;BME280;24026;49.446;8.576;2023-05-10T08:42:22;100119.75;;;18.43;63.95
38227;BME280;24026;49.446;8.576;2023-05-10T08:44:48;100120.56;;;18.43;63.75
38227;BME280;24026;49.446;8.576;2023-05-10T08:47:08;100125.34;;;18.46;62.83
38227;BME280;24026;49.446;8.576;2023-05-10T08:49:31;100123.53;;;18.42;63.73
38227;BME280;24026;49.446;8.576;2023-05-10T08:51:56;100123.06;;;18.40;63.73
38227;BME280;24026;49.446;8.576;2023-05-10T08:54:18;100127.94;;;18.38;63.40
38227;BME280;24026;49.446;8.576;2023-05-10T08:56:40;100128.44;;;18.40;63.37
38227;BME280;24026;49.446;8.576;2023-05-10T08:59:02;100133.31;;;18.38;63.07
38227;BME280;24026;49.446;8.576;2023-05-10T09:01:24;100129.63;;;18.33;62.83
38227;BME280;24026;49.446;8.576;2023-05-10T09:03:46;100141.06;;;18.39;62.71
38227;BME280;24026;49.446;8.576;2023-05-10T09:06:07;100135.78;;;18.34;62.76
38227;BME280;24026;49.446;8.576;2023-05-10T09:08:28;100140.47;;;18.42;62.35
38227;BME280;24026;49.446;8.576;2023-05-10T09:10:51;100141.78;;;18.45;62.55
38227;BME280;24026;49.446;8.576;2023-05-10T09:13:14;100146.44;;;18.39;62.32
38227;BME280;24026;49.446;8.576;2023-05-10T09:15:35;100141.88;;;18.40;62.60
38227;BME280;24026;49.446;8.576;2023-05-10T09:17:55;100138.06;;;18.41;62.30
38227;BME280;24026;49.446;8.576;2023-05-10T09:20:17;100141.19;;;18.48;61.83
38227;BME280;24026;49.446;8.576;2023-05-10T09:22:38;100138.19;;;18.49;62.03
38227;BME280;24026;49.446;8.576;2023-05-10T09:25:11;100152.72;;;18.48;61.94
38227;BME280;24026;49.446;8.576;2023-05-10T09:27:33;100156.09;;;18.54;61.75
38227;BME280;24026;49.446;8.576;2023-05-10T09:29:53;100152.22;;;18.60;61.79
38227;BME280;24026;49.446;8.576;2023-05-10T09:32:15;100148.44;;;18.61;61.75
38227;BME280;24026;49.446;8.576;2023-05-10T09:34:36;100150.72;;;18.54;61.42
38227;BME280;24026;49.446;8.576;2023-05-10T09:37:01;100147.13;;;18.59;61.33
38227;BME280;24026;49.446;8.576;2023-05-10T09:39:32;100149.22;;;18.62;61.08
38227;BME280;24026;49.446;8.576;2023-05-10T09:41:53;100159.63;;;18.55;61.50
38227;BME280;24026;49.446;8.576;2023-05-10T09:44:17;100155.81;;;18.56;61.47
38227;BME280;24026;49.446;8.576;2023-05-10T09:46:38;100159.22;;;18.61;61.38
38227;BME280;24026;49.446;8.576;2023-05-10T09:48:59;100161.31;;;18.64;60.89
38227;BME280;24026;49.446;8.576;2023-05-10T09:51:23;100168.44;;;18.69;60.94
38227;BME280;24026;49.446;8.576;2023-05-10T09:53:44;100152.59;;;18.67;60.92
38227;BME280;24026;49.446;8.576;2023-05-10T09:56:06;100161.31;;;18.64;61.14
38227;BME280;24026;49.446;8.576;2023-05-10T09:58:26;100167.56;;;18.74;61.02
38227;BME280;24026;49.446;8.576;2023-05-10T10:00:47;100167.56;;;18.74;61.12
38227;BME280;24026;49.446;8.576;2023-05-10T10:03:14;100164.69;;;18.70;60.93
38227;BME280;24026;49.446;8.576;2023-05-10T10:05:35;100174.13;;;18.67;60.73
38227;BME280;24026;49.446;8.576;2023-05-10T10:08:00;100173.66;;;18.65;60.96
38227;BME280;24026;49.446;8.576;2023-05-10T10:10:20;100171.16;;;18.69;61.27
38227;BME280;24026;49.446;8.576;2023-05-10T10:12:41;100168.66;;;18.73;60.92
38227;BME280;24026;49.446;8.576;2023-05-10T10:15:01;100161.69;;;18.72;60.54
38227;BME280;24026;49.446;8.576;2023-05-10T10:17:23;100170.06;;;18.70;60.85
38227;BME280;24026;49.446;8.576;2023-05-10T10:19:49;100170.84;;;18.70;60.57
38227;BME280;24026;49.446;8.576;2023-05-10T10:22:09;100170.75;;;18.76;60.45
38227;BME280;24026;49.446;8.576;2023-05-10T10:24:32;100171.03;;;18.74;60.32
38227;BME280;24026;49.446;8.576;2023-05-10T10:26:57;100175.34;;;18.75;60.56
38227;BME280;24026;49.446;8.576;2023-05-10T10:34:25;100181.41;;;18.81;60.17
38227;BME280;24026;49.446;8.576;2023-05-10T10:36:48;100176.25;;;18.84;59.93
38227;BME280;24026;49.446;8.576;2023-05-10T10:39:10;100182.91;;;18.87;60.15
38227;BME280;24026;49.446;8.576;2023-05-10T10:41:35;100185.31;;;18.88;60.11
38227;BME280;24026;49.446;8.576;2023-05-10T10:50:01;100180.03;;;18.83;59.86
38227;BME280;24026;49.446;8.576;2023-05-10T10:52:41;100172.75;;;18.84;60.15
38227;BME280;24026;49.446;8.576;2023-05-10T10:55:06;100175.94;;;18.86;59.87
38227;BME280;24026;49.446;8.576;2023-05-10T10:57:29;100170.25;;;18.74;60.23
38227;BME280;24026;49.446;8.576;2023-05-10T10:59:51;100167.63;;;18.82;60.33
38227;BME280;24026;49.446;8.576;2023-05-10T11:02:34;100176.44;;;18.88;59.92
38227;BME280;24026;49.446;8.576;2023-05-10T11:04:57;100177.13;;;18.94;59.79
38227;BME280;24026;49.446;8.576;2023-05-10T11:07:18;100166.53;;;18.97;59.62
38227;BME280;24026;49.446;8.576;2023-05-10T11:09:40;100167.53;;;19.01;59.67
38227;BME280;24026;49.446;8.576;2023-05-10T11:12:08;100174.22;;;19.04;58.94
38227;BME280;24026;49.446;8.576;2023-05-10T11:14:31;100170.13;;;19.06;59.07
38227;BME280;24026;49.446;8.576;2023-05-10T11:16:51;100170.91;;;19.07;58.91
38227;BME280;24026;49.446;8.576;2023-05-10T11:19:14;100175.50;;;19.06;58.92
38227;BME280;24026;49.446;8.576;2023-05-10T11:21:49;100172.53;;;19.08;58.29
38227;BME280;24026;49.446;8.576;2023-05-10T11:24:15;100178.09;;;19.12;58.38
38227;BME280;24026;49.446;8.576;2023-05-10T11:26:36;100179.66;;;19.13;58.05
38227;BME280;24026;49.446;8.576;2023-05-10T11:28:56;100178.28;;;19.15;58.21
38227;BME280;24026;49.446;8.576;2023-05-10T11:31:19;100174.38;;;19.21;58.20
38227;BME280;24026;49.446;8.576;2023-05-10T11:33:59;100173.78;;;19.24;57.89
38227;BME280;24026;49.446;8.576;2023-05-10T11:36:25;100172.53;;;19.31;57.49
38227;BME280;24026;49.446;8.576;2023-05-10T11:38:48;100188.41;;;19.32;57.62
38227;BME280;24026;49.446;8.576;2023-05-10T11:41:09;100185.28;;;19.39;57.29
38227;BME280;24026;49.446;8.576;2023-05-10T11:43:32;100188.66;;;19.44;56.76
38227;BME280;24026;49.446;8.576;2023-05-10T11:45:54;100191.53;;;19.48;56.28
38227;BME280;24026;49.446;8.576;2023-05-10T11:48:16;100187.53;;;19.46;56.97
38227;BME280;24026;49.446;8.576;2023-05-10T11:50:43;100197.41;;;19.50;56.30
38227;BME280;24026;49.446;8.576;2023-05-10T11:53:05;100199.50;;;19.53;56.38
38227;BME280;24026;49.446;8.576;2023-05-10T11:55:25;100190.81;;;19.56;56.34
38227;BME280;24026;49.446;8.576;2023-05-10T11:57:46;100196.69;;;19.58;56.38
38227;BME280;24026;49.446;8.576;2023-05-10T12:00:07;100204.66;;;19.63;56.19
38227;BME280;24026;49.446;8.576;2023-05-10T12:02:28;100190.88;;;19.65;55.89
38227;BME280;24026;49.446;8.576;2023-05-10T12:04:52;100198.53;;;19.72;55.83
38227;BME280;24026;49.446;8.576;2023-05-10T12:07:12;100195.03;;;19.71;55.68
38227;BME280;24026;49.446;8.576;2023-05-10T12:09:33;100187.03;;;19.80;55.90
38227;BME280;24026;49.446;8.576;2023-05-10T12:11:55;100187.69;;;19.86;56.15
38227;BME280;24026;49.446;8.576;2023-05-10T12:14:17;100193.56;;;19.88;55.68
38227;BME280;24026;49.446;8.576;2023-05-10T12:16:37;100198.16;;;19.87;54.92
38227;BME280;24026;49.446;8.576;2023-05-10T12:18:59;100195.47;;;19.87;55.05
38227;BME280;24026;49.446;8.576;2023-05-10T12:21:21;100194.81;;;19.82;55.60
38227;BME280;24026;49.446;8.576;2023-05-10T12:23:42;100193.84;;;19.86;55.14
38227;BME280;24026;49.446;8.576;2023-05-10T12:26:12;100202.28;;;19.85;54.98
38227;BME280;24026;49.446;8.576;2023-05-10T12:28:33;100198.63;;;19.89;55.13
38227;BME280;24026;49.446;8.576;2023-05-10T12:30:53;100200.38;;;19.85;55.31
38227;BME280;24026;49.446;8.576;2023-05-10T12:33:20;100204.22;;;19.93;54.89
38227;BME280;24026;49.446;8.576;2023-05-10T12:35:52;100211.69;;;19.96;54.71
38227;BME280;24026;49.446;8.576;2023-05-10T12:40:51;100217.47;;;20.03;54.82
38227;BME280;24026;49.446;8.576;2023-05-10T12:43:11;100219.22;;;20.08;54.61
38227;BME280;24026;49.446;8.576;2023-05-10T12:45:33;100214.94;;;20.07;53.68
38227;BME280;24026;49.446;8.576;2023-05-10T12:47:55;100214.47;;;20.05;53.51
38227;BME280;24026;49.446;8.576;2023-05-10T12:50:17;100222.84;;;20.03;53.45
38227;BME280;24026;49.446;8.576;2023-05-10T12:52:38;100221.91;;;20.08;52.07
38227;BME280;24026;49.446;8.576;2023-05-10T12:54:59;100219.03;;;20.04;52.56
38227;BME280;24026;49.446;8.576;2023-05-10T12:57:21;100218.72;;;20.06;52.14